Time;durP1;ratioP1;P1;durP2;ratioP2;P2;SDS_P1;SDS_P2;PMS_P1;PMS_P2;Temp;Humidity;BMP_temperature;BMP_pressure;BME280_temperature;BME280_humidity;BME280_pressure;Samples;Min_cycle;Max_cycle;Signal;HPM_P1;HPM_P2
2022/08/29 00:01:51;;;;;;;32.60;5.25;;;16.00;99.90;;;14.98;100.00;101271.06;4933101;28;20050;-74
2022/08/29 00:04:17;;;;;;;22.55;5.38;;;16.00;99.90;;;14.97;100.00;101268.53;4932308;28;20089;-74
2022/08/29 00:06:42;;;;;;;27.52;5.80;;;16.00;99.90;;;14.95;100.00;101271.25;4942261;28;20031;-74
2022/08/29 00:09:08;;;;;;;23.58;5.50;;;15.90;99.90;;;14.97;100.00;101274.69;4947481;28;20175;-74
2022/08/29 00:11:39;;;;;;;27.50;5.70;;;15.90;99.90;;;14.98;100.00;101265.75;4931417;28;20118;-74
2022/08/29 00:14:05;;;;;;;32.17;5.55;;;15.90;99.90;;;14.97;100.00;101271.19;4947344;28;20070;-74
2022/08/29 00:16:31;;;;;;;18.67;5.30;;;15.90;99.90;;;14.97;100.00;101265.88;4949231;28;20035;-74
2022/08/29 00:18:57;;;;;;;25.38;5.40;;;16.00;99.90;;;14.96;100.00;101266.81;4949082;28;20035;-74
2022/08/29 00:21:23;;;;;;;23.73;4.88;;;15.90;99.90;;;14.93;100.00;101267.84;4951181;28;20154;-74
2022/08/29 00:23:51;;;;;;;25.15;5.53;;;15.90;99.90;;;14.91;100.00;101267.06;4945049;28;20031;-74
2022/08/29 00:26:16;;;;;;;30.77;5.05;;;15.90;99.90;;;14.88;100.00;101261.94;4950614;28;20040;-74
2022/08/29 00:28:42;;;;;;;26.08;5.65;;;16.60;99.90;;;14.86;100.00;101266.47;4927742;28;20059;-74
2022/08/29 00:31:08;;;;;;;21.60;5.70;;;15.80;99.90;;;14.83;100.00;101261.31;4955857;28;20062;-74
2022/08/29 00:33:35;;;;;;;26.27;5.95;;;15.80;99.90;;;14.81;100.00;101262.34;4952467;28;20414;-74
2022/08/29 00:36:01;;;;;;;27.60;5.60;;;15.80;99.90;;;14.79;100.00;101264.25;4952350;28;20054;-75
2022/08/29 00:38:26;;;;;;;31.10;5.57;;;15.80;99.90;;;14.75;100.00;101258.25;4932639;28;20595;-74
2022/08/29 00:40:56;;;;;;;25.73;6.03;;;15.70;99.90;;;14.72;100.00;101255.78;4943227;28;20086;-75
2022/08/29 00:43:29;;;;;;;34.85;5.88;;;15.70;99.90;;;14.69;100.00;101258.59;4919325;28;20058;-74
2022/08/29 00:46:33;;;;;;;25.15;5.80;;;15.70;99.90;;;14.67;100.00;101256.03;4941516;28;20570;-74
2022/08/29 00:49:07;;;;;;;34.17;5.95;;;15.60;99.90;;;14.62;100.00;101257.22;4953741;28;20039;-74
2022/08/29 00:51:34;;;;;;;30.10;5.85;;;15.60;99.90;;;14.59;100.00;101252.94;4949841;28;20039;-74
2022/08/29 00:54:10;;;;;;;23.15;5.72;;;15.60;99.90;;;14.57;100.00;101253.03;4946377;28;20122;-74
2022/08/29 00:56:38;;;;;;;32.47;7.18;;;15.60;99.90;;;14.56;100.00;101253.13;4948942;28;20034;-73
2022/08/29 00:59:15;;;;;;;32.30;6.65;;;15.60;99.90;;;14.54;100.00;101253.16;4951712;28;20372;-74
2022/08/29 01:01:42;;;;;;;25.85;6.47;;;15.50;99.90;;;14.53;100.00;101254.09;4944085;28;20055;-74
2022/08/29 01:04:11;;;;;;;32.22;6.63;;;15.60;99.90;;;14.52;100.00;101262.16;4952622;28;20035;-74
2022/08/29 01:06:40;;;;;;;39.60;7.43;;;15.60;99.90;;;14.49;100.00;101257.88;4951205;28;20094;-74
2022/08/29 01:09:07;;;;;;;29.63;6.60;;;15.50;99.90;;;14.51;100.00;101263.94;4934847;28;20396;-74
2022/08/29 01:14:20;;;;;;;34.17;6.47;;;15.60;99.90;;;14.67;100.00;101266.63;4951502;28;20144;-73
2022/08/29 01:16:48;;;;;;;28.33;6.30;;;15.70;99.90;;;14.77;100.00;101262.53;4953196;28;20036;-75
2022/08/29 01:19:25;;;;;;;24.73;5.88;;;15.80;99.90;;;14.88;100.00;101266.38;4942449;28;20097;-75
2022/08/29 01:22:21;;;;;;;36.88;7.47;;;15.80;99.90;;;15.00;100.00;101275.44;4945943;28;20410;-75
2022/08/29 01:24:51;;;;;;;35.55;6.80;;;15.90;99.90;;;15.06;100.00;101268.00;4937461;28;20082;-74
2022/08/29 01:27:25;;;;;;;26.65;6.05;;;16.00;99.90;;;15.12;100.00;101272.09;4943266;28;20043;-75
2022/08/29 01:29:51;;;;;;;32.50;7.32;;;16.10;99.90;;;15.17;100.00;101265.56;4949846;28;20023;-74
2022/08/29 01:32:17;;;;;;;33.63;7.25;;;16.10;99.90;;;15.23;100.00;101275.00;4965696;28;20047;-75
2022/08/29 01:34:43;;;;;;;30.85;6.88;;;16.20;99.90;;;15.26;100.00;101258.88;4942250;28;20031;-74
2022/08/29 01:37:13;;;;;;;35.45;6.85;;;16.20;99.90;;;15.30;100.00;101268.38;4918166;28;20032;-74
2022/08/29 01:39:42;;;;;;;33.13;6.95;;;16.20;99.90;;;15.28;100.00;101266.78;4939309;28;20038;-75
2022/08/29 01:42:15;;;;;;;38.33;7.60;;;16.20;99.90;;;15.25;100.00;101270.47;4949571;28;20035;-74
2022/08/29 01:44:46;;;;;;;37.10;7.68;;;16.20;99.90;;;15.18;100.00;101267.31;4933392;28;20058;-74
2022/08/29 01:47:12;;;;;;;30.38;7.45;;;16.20;99.90;;;15.13;100.00;101260.53;4942650;28;20027;-74
2022/08/29 01:49:37;;;;;;;34.00;6.78;;;16.10;99.90;;;15.10;100.00;101269.53;4943323;28;20625;-75
2022/08/29 01:52:05;;;;;;;27.65;7.22;;;16.00;99.90;;;15.04;100.00;101266.38;4944739;28;20045;-74
2022/08/29 01:54:33;;;;;;;30.83;6.80;;;16.00;99.90;;;15.01;100.00;101258.56;4950329;28;20118;-74
2022/08/29 01:57:00;;;;;;;34.60;8.05;;;16.00;99.90;;;15.02;100.00;101258.50;4942442;28;20066;-75
2022/08/29 01:59:29;;;;;;;30.60;7.53;;;16.00;99.90;;;14.99;100.00;101261.34;4951944;28;20042;-74
2022/08/29 02:02:19;;;;;;;28.70;7.15;;;15.90;99.90;;;14.96;100.00;101254.38;4940258;28;20027;-74
2022/08/29 02:04:47;;;;;;;27.23;7.43;;;15.90;99.90;;;14.91;100.00;101248.50;4948450;28;20028;-74
2022/08/29 02:07:16;;;;;;;42.30;8.18;;;15.90;99.90;;;14.88;100.00;101253.09;4942713;28;20041;-74
2022/08/29 02:09:43;;;;;;;38.10;8.27;;;15.80;99.90;;;14.84;100.00;101255.09;4926200;28;20116;-75
2022/08/29 02:12:09;;;;;;;32.30;7.43;;;15.80;99.90;;;14.80;100.00;101250.91;4933689;28;20185;-74
2022/08/29 02:14:36;;;;;;;42.13;8.35;;;15.80;99.90;;;14.80;100.00;101250.06;4935822;28;20039;-75
2022/08/29 02:17:04;;;;;;;34.35;8.93;;;15.80;99.90;;;14.76;100.00;101244.91;4931951;28;20032;-74
2022/08/29 02:19:32;;;;;;;43.22;9.32;;;15.80;99.90;;;14.74;100.00;101249.44;4953401;28;20129;-73
2022/08/29 02:21:58;;;;;;;41.60;8.73;;;15.80;99.90;;;14.74;100.00;101243.28;4926042;28;20390;-74
2022/08/29 02:24:28;;;;;;;35.40;9.15;;;15.70;99.90;;;14.72;100.00;101245.16;4929580;28;20432;-74
2022/08/29 02:26:55;;;;;;;38.95;9.70;;;15.70;99.90;;;14.71;100.00;101246.97;4952726;28;20050;-74
2022/08/29 02:29:22;;;;;;;40.88;9.82;;;15.70;99.90;;;14.70;100.00;101244.41;4949777;28;20050;-74
2022/08/29 02:31:48;;;;;;;30.58;8.48;;;15.70;99.90;;;14.68;100.00;101238.31;4942106;28;20055;-74
2022/08/29 02:34:16;;;;;;;36.72;8.98;;;15.60;99.90;;;14.68;100.00;101238.31;4926195;28;20038;-74
2022/08/29 02:36:42;;;;;;;33.55;8.85;;;15.70;99.90;;;14.65;100.00;101235.88;4950034;28;20039;-74
2022/08/29 02:39:08;;;;;;;42.95;9.27;;;15.60;99.90;;;14.61;100.00;101229.88;4952300;28;20106;-74
2022/08/29 02:41:34;;;;;;;36.63;9.20;;;15.60;99.90;;;14.59;100.00;101229.09;4946862;28;20064;-74
2022/08/29 02:44:01;;;;;;;38.85;9.38;;;15.60;99.90;;;14.56;100.00;101221.31;4916016;28;20113;-74
2022/08/29 02:46:27;;;;;;;39.65;9.43;;;15.60;99.90;;;14.56;100.00;101231.94;4937575;28;20053;-75
2022/08/29 02:48:55;;;;;;;32.33;8.80;;;15.60;99.90;;;14.52;100.00;101228.53;4941215;28;20403;-74
2022/08/29 02:51:32;;;;;;;38.40;9.38;;;15.50;99.90;;;14.50;100.00;101233.06;4952494;28;20555;-74
2022/08/29 02:53:59;;;;;;;40.10;9.52;;;15.60;99.90;;;14.47;100.00;101240.31;4939973;28;20109;-74
2022/08/29 02:56:27;;;;;;;33.65;9.10;;;15.50;99.90;;;14.45;100.00;101240.44;4950353;28;20046;-74
2022/08/29 02:58:53;;;;;;;39.95;9.38;;;15.50;99.90;;;14.46;100.00;101239.47;4926555;28;20052;-74
2022/08/29 03:01:21;;;;;;;42.30;9.38;;;15.50;99.90;;;14.46;100.00;101247.44;4933413;28;20138;-75
2022/08/29 03:03:48;;;;;;;32.78;9.23;;;15.50;99.90;;;14.44;100.00;101237.84;4933620;28;20062;-75
2022/08/29 03:06:13;;;;;;;26.02;9.88;;;15.50;99.90;;;14.44;100.00;101241.34;4936610;28;20046;-74
2022/08/29 03:08:42;;;;;;;36.30;9.18;;;15.50;99.90;;;14.46;100.00;101238.63;4941398;28;20022;-75
2022/08/29 03:11:08;;;;;;;32.95;9.45;;;15.50;99.90;;;14.47;100.00;101246.50;4941385;28;20118;-74
2022/08/29 03:13:35;;;;;;;45.65;9.95;;;15.50;99.90;;;14.52;100.00;101244.44;4939008;28;20059;-74
2022/08/29 03:16:02;;;;;;;35.60;10.00;;;15.60;99.90;;;14.61;100.00;101244.91;4951445;28;20086;-74
2022/08/29 03:18:29;;;;;;;30.48;9.50;;;15.60;99.90;;;14.69;100.00;101246.19;4949643;28;20031;-74
2022/08/29 03:20:58;;;;;;;36.63;9.98;;;15.70;99.90;;;14.79;100.00;101250.97;4931616;28;20054;-75
2022/08/29 03:23:24;;;;;;;34.58;8.73;;;15.80;99.90;;;14.87;100.00;101241.66;4962387;28;20058;-74
2022/08/29 03:25:50;;;;;;;39.20;9.60;;;15.90;99.90;;;14.93;100.00;101240.47;4948628;28;20027;-75
2022/08/29 03:28:16;;;;;;;40.80;10.15;;;15.90;99.90;;;14.99;100.00;101242.78;4939673;28;20027;-74
2022/08/29 03:30:42;;;;;;;41.72;10.68;;;16.00;99.90;;;15.04;100.00;101242.50;4932986;28;20601;-74
2022/08/29 03:33:07;;;;;;;44.03;10.13;;;16.00;99.90;;;15.07;100.00;101244.97;4940472;28;20050;-75
2022/08/29 03:35:33;;;;;;;45.10;10.80;;;16.10;99.90;;;15.11;100.00;101233.25;4940690;28;20035;-74
2022/08/29 03:38:00;;;;;;;31.35;9.82;;;16.10;99.90;;;15.18;100.00;101234.59;4940249;28;20035;-74
2022/08/29 03:40:25;;;;;;;37.40;10.07;;;16.20;99.90;;;15.23;100.00;101237.84;4941257;28;20038;-74
2022/08/29 03:42:54;;;;;;;36.85;10.23;;;16.20;99.90;;;15.27;100.00;101230.56;4924378;28;20035;-74
2022/08/29 03:45:20;;;;;;;41.47;10.07;;;16.30;99.90;;;15.33;100.00;101232.84;4931155;28;20038;-74
2022/08/29 03:47:46;;;;;;;34.33;9.95;;;16.30;99.90;;;15.37;100.00;101223.78;4948981;28;20043;-74
2022/08/29 03:50:18;;;;;;;32.85;9.90;;;16.40;99.90;;;15.40;100.00;101228.91;4941196;28;20073;-75
2022/08/29 03:52:44;;;;;;;37.95;9.77;;;16.40;99.90;;;15.46;100.00;101227.69;4946783;28;20712;-75
2022/08/29 03:55:12;;;;;;;31.35;10.35;;;16.40;99.90;;;15.50;100.00;101222.09;4928649;28;20027;-74
2022/08/29 03:57:38;;;;;;;35.20;10.27;;;16.50;99.90;;;15.55;100.00;101216.50;4949723;28;20025;-74
2022/08/29 04:00:11;;;;;;;30.38;9.50;;;16.50;99.90;;;15.58;100.00;101226.97;4926463;28;20400;-75
2022/08/29 04:02:38;;;;;;;30.15;10.10;;;16.60;99.90;;;15.62;100.00;101219.69;4952571;28;20073;-75
2022/08/29 04:05:08;;;;;;;37.63;9.77;;;16.60;99.90;;;15.65;100.00;101228.28;4919405;28;20027;-74
2022/08/29 04:08:04;;;;;;;31.55;9.38;;;16.70;99.90;;;15.67;100.00;101226.41;4951515;28;20047;-75
2022/08/29 04:10:36;;;;;;;40.22;9.85;;;16.70;99.90;;;15.67;100.00;101215.78;4913631;28;20062;-75
2022/08/29 04:13:03;;;;;;;31.27;9.48;;;16.70;99.90;;;15.69;100.00;101223.66;4931426;28;20525;-75
2022/08/29 04:15:31;;;;;;;30.45;9.77;;;16.70;99.90;;;15.71;100.00;101221.78;4960867;28;20046;-74
2022/08/29 04:18:02;;;;;;;33.83;8.75;;;16.70;99.90;;;15.77;100.00;101222.28;4951611;28;20457;-74
2022/08/29 04:20:32;;;;;;;25.23;8.95;;;16.80;99.90;;;15.83;100.00;101225.50;4942977;28;20038;-75
2022/08/29 04:22:59;;;;;;;37.00;9.93;;;16.80;99.90;;;15.87;100.00;101216.41;4943290;28;20039;-75
2022/08/29 04:25:27;;;;;;;26.02;8.48;;;16.80;99.90;;;15.92;100.00;101222.31;4943629;28;20474;-74
2022/08/29 04:27:56;;;;;;;26.00;9.05;;;16.90;99.90;;;15.99;100.00;101218.31;4932214;28;20015;-75
2022/08/29 04:30:24;;;;;;;24.23;8.38;;;17.00;99.90;;;16.05;100.00;101222.41;4947401;28;20018;-75
2022/08/29 04:32:50;;;;;;;32.35;8.23;;;17.00;99.90;;;16.11;100.00;101220.22;4934006;28;20368;-75
2022/08/29 04:35:16;;;;;;;30.70;8.63;;;17.00;99.90;;;16.13;100.00;101228.97;4939141;28;20034;-74
2022/08/29 04:37:43;;;;;;;21.75;7.88;;;17.10;99.90;;;16.18;100.00;101224.22;4953397;28;20732;-74
2022/08/29 04:40:14;;;;;;;24.17;8.43;;;17.10;99.90;;;16.19;100.00;101219.75;4942878;28;20019;-74
2022/08/29 04:42:40;;;;;;;33.70;8.50;;;17.10;99.90;;;16.19;100.00;101228.56;4925186;28;20673;-75
2022/08/29 04:45:11;;;;;;;30.90;9.70;;;17.20;99.90;;;16.25;100.00;101226.47;4934879;28;20623;-75
2022/08/29 04:47:38;;;;;;;28.17;10.10;;;17.20;99.90;;;16.27;100.00;101227.25;4950764;28;20077;-75
2022/08/29 04:50:08;;;;;;;23.90;9.23;;;17.20;99.90;;;16.23;100.00;101239.00;4952304;28;20031;-74
2022/08/29 04:52:35;;;;;;;36.58;9.75;;;17.20;99.90;;;16.25;100.00;101230.00;4950949;28;20094;-74
2022/08/29 04:55:04;;;;;;;27.25;9.70;;;17.20;99.90;;;16.31;100.00;101242.06;4931829;28;20443;-75
2022/08/29 04:57:30;;;;;;;32.67;10.02;;;17.20;99.90;;;16.36;100.00;101239.94;4936308;28;20376;-75
2022/08/29 05:00:00;;;;;;;30.33;9.63;;;17.30;99.90;;;16.39;100.00;101239.75;4917430;28;20057;-74
2022/08/29 05:02:27;;;;;;;34.55;9.65;;;17.30;99.90;;;16.45;100.00;101238.50;4952518;28;20102;-75
2022/08/29 05:04:55;;;;;;;28.73;9.90;;;17.30;99.90;;;16.49;100.00;101240.88;4948344;28;20039;-74
2022/08/29 05:07:24;;;;;;;32.03;9.63;;;17.40;99.90;;;16.51;100.00;101241.63;4932495;28;20027;-74
2022/08/29 05:09:59;;;;;;;28.40;10.20;;;17.40;99.90;;;16.52;100.00;101246.00;4956666;28;20078;-75
2022/08/29 05:12:29;;;;;;;29.90;9.95;;;17.40;99.90;;;16.53;100.00;101241.53;4924418;28;20042;-74
2022/08/29 05:14:55;;;;;;;27.95;9.85;;;17.40;99.90;;;16.55;100.00;101245.81;4943202;28;20031;-75
2022/08/29 05:17:22;;;;;;;21.13;9.00;;;17.50;99.90;;;16.58;100.00;101247.41;4944002;28;20031;-74
2022/08/29 05:19:49;;;;;;;31.13;9.90;;;17.50;99.90;;;16.62;100.00;101246.28;4939003;28;20081;-75
2022/08/29 05:22:16;;;;;;;33.13;9.77;;;17.50;99.90;;;16.64;100.00;101244.38;4937990;28;20062;-74
2022/08/29 05:24:43;;;;;;;28.77;9.27;;;17.50;99.90;;;16.68;100.00;101250.34;4952665;28;20110;-74
2022/08/29 05:27:15;;;;;;;34.35;9.80;;;17.60;99.90;;;16.71;100.00;101253.66;4943196;28;20066;-75
2022/08/29 05:29:45;;;;;;;21.67;8.82;;;17.60;99.90;;;16.74;100.00;101256.13;4954840;28;20038;-74
2022/08/29 05:32:13;;;;;;;24.45;9.30;;;17.60;99.90;;;16.77;100.00;101250.59;4941000;28;20499;-74
2022/08/29 05:34:42;;;;;;;29.75;9.05;;;17.60;99.90;;;16.80;100.00;101254.91;4939802;28;20040;-74
2022/08/29 05:37:15;;;;;;;24.48;8.38;;;17.70;99.90;;;16.83;100.00;101257.38;4945583;28;20039;-74
2022/08/29 05:39:42;;;;;;;24.30;8.38;;;17.70;99.90;;;16.87;100.00;101258.88;4943670;28;20035;-75
2022/08/29 05:42:09;;;;;;;20.67;8.38;;;17.80;99.90;;;16.97;100.00;101248.50;4940003;28;20403;-74
2022/08/29 05:44:36;;;;;;;22.88;8.20;;;17.90;99.90;;;17.04;100.00;101252.47;4951011;28;20115;-75
2022/08/29 05:47:07;;;;;;;24.58;8.07;;;17.90;99.90;;;17.06;100.00;101265.66;4942110;28;20090;-74
2022/08/29 05:49:38;;;;;;;21.48;7.82;;;17.90;99.90;;;17.10;100.00;101261.84;4932180;28;20122;-74
2022/08/29 05:52:07;;;;;;;21.60;7.68;;;17.90;99.90;;;17.13;100.00;101266.97;4940025;28;20039;-74
2022/08/29 05:54:36;;;;;;;23.25;7.97;;;18.00;99.90;;;17.24;100.00;101268.94;4911523;28;20396;-74
2022/08/29 05:57:03;;;;;;;27.30;7.85;;;18.10;99.90;;;17.34;100.00;101267.34;4942046;28;20069;-74
2022/08/29 05:59:29;;;;;;;24.20;8.52;;;18.20;99.90;;;17.45;100.00;101266.63;4935900;28;20474;-75
2022/08/29 06:01:55;;;;;;;23.80;7.68;;;18.30;99.90;;;17.59;100.00;101274.56;4943392;28;20027;-74
2022/08/29 06:04:28;;;;;;;26.45;7.78;;;18.40;99.90;;;17.77;100.00;101267.97;4917566;28;20143;-75
2022/08/29 06:06:54;;;;;;;14.38;6.43;;;18.50;99.90;;;17.97;100.00;101271.09;4925994;28;20054;-74
2022/08/29 06:09:20;;;;;;;14.73;6.68;;;18.70;99.90;;;18.03;100.00;101274.22;4935519;28;20566;-74
2022/08/29 06:11:52;;;;;;;20.70;7.05;;;18.80;99.90;;;18.21;100.00;101277.41;4950556;28;20047;-75
2022/08/29 06:14:18;;;;;;;19.45;6.45;;;19.00;99.90;;;18.71;100.00;101279.25;4951651;28;20035;-75
2022/08/29 06:16:44;;;;;;;14.73;6.50;;;19.30;99.90;;;19.39;100.00;101277.84;4949551;28;20031;-74
2022/08/29 06:19:11;;;;;;;15.15;6.22;;;19.60;99.90;;;19.43;100.00;101282.81;4941365;28;20039;-74
2022/08/29 06:21:37;;;;;;;15.07;5.80;;;19.80;99.90;;;19.32;100.00;101285.47;4939770;28;20035;-74
2022/08/29 06:24:04;;;;;;;12.93;5.72;;;19.90;99.90;;;19.34;100.00;101291.53;4951748;28;20563;-74
2022/08/29 06:26:30;;;;;;;11.77;4.53;;;20.00;99.90;;;19.32;100.00;101287.28;4929335;28;20031;-74
2022/08/29 06:28:58;;;;;;;14.35;5.20;;;20.00;99.90;;;19.50;100.00;101293.91;4931490;28;20438;-74
2022/08/29 06:31:28;;;;;;;10.73;4.50;;;20.10;99.90;;;20.04;100.00;101295.16;4950914;28;20137;-74
2022/08/29 06:33:57;;;;;;;11.77;4.40;;;20.40;99.90;;;20.28;100.00;101298.63;4950336;28;20578;-75
2022/08/29 06:36:28;;;;;;;13.77;4.40;;;20.60;99.90;;;20.39;100.00;101295.09;4933886;28;20412;-75
2022/08/29 06:38:59;;;;;;;11.07;4.03;;;20.70;99.90;;;20.25;100.00;101295.34;4942007;28;20023;-75
2022/08/29 06:41:28;;;;;;;6.80;3.45;;;20.70;99.90;;;20.16;100.00;101291.56;4941294;28;20027;-75
2022/08/29 06:43:55;;;;;;;6.80;2.90;;;20.70;99.90;;;20.15;100.00;101297.00;4944455;28;20066;-74
2022/08/29 06:46:37;;;;;;;10.70;3.03;;;20.70;99.90;;;20.03;100.00;101298.84;4954630;28;20035;-74
2022/08/29 06:49:06;;;;;;;9.30;2.88;;;20.60;99.90;;;19.87;100.00;101302.69;4961079;28;20511;-74
2022/08/29 06:51:34;;;;;;;9.32;2.60;;;20.60;99.90;;;19.94;100.00;101302.22;4951422;28;20042;-74
2022/08/29 06:54:03;;;;;;;9.82;2.70;;;20.60;99.90;;;19.83;100.00;101295.03;4933194;28;20035;-74
2022/08/29 06:56:29;;;;;;;4.25;2.10;;;20.60;99.90;;;20.04;100.00;101303.19;4947008;28;20142;-74
2022/08/29 06:58:55;;;;;;;11.48;2.70;;;20.70;99.90;;;20.13;100.00;101305.19;4940639;28;20066;-74
2022/08/29 07:01:22;;;;;;;7.00;2.00;;;20.70;99.90;;;20.10;100.00;101313.41;4941378;28;20039;-75
2022/08/29 07:03:51;;;;;;;5.28;1.83;;;20.70;99.90;;;20.08;100.00;101308.19;4930110;28;20059;-75
2022/08/29 07:06:18;;;;;;;8.45;2.03;;;21.10;99.90;;;21.79;99.23;101315.00;4934350;28;20098;-74
2022/08/29 07:08:44;;;;;;;4.53;1.13;;;21.50;99.90;;;21.28;95.75;101321.88;4954492;28;20518;-75
2022/08/29 07:11:10;;;;;;;4.63;1.23;;;21.60;99.90;;;20.88;97.59;101317.97;4933954;28;20050;-75
2022/08/29 07:13:38;;;;;;;1.98;1.10;;;21.40;99.90;;;20.61;99.12;101318.34;4945487;28;20043;-75
2022/08/29 07:16:15;;;;;;;4.00;1.10;;;21.40;99.90;;;20.79;99.42;101325.88;4965225;28;20023;-74
2022/08/29 07:18:42;;;;;;;5.57;1.17;;;21.40;99.90;;;20.55;100.00;101329.50;4954286;28;20034;-75
2022/08/29 07:21:13;;;;;;;2.67;1.05;;;21.20;99.90;;;20.21;100.00;101329.47;4928859;28;20035;-75
2022/08/29 07:23:39;;;;;;;4.68;1.02;;;21.00;99.90;;;19.88;100.00;101324.91;4946987;28;20042;-74
2022/08/29 07:26:37;;;;;;;2.47;1.15;;;21.00;99.90;;;20.53;100.00;101334.13;4938226;28;20122;-74
2022/08/29 07:29:09;;;;;;;2.30;0.90;;;21.00;99.90;;;20.44;100.00;101325.00;4949429;28;20435;-74
2022/08/29 07:31:37;;;;;;;2.80;1.00;;;21.10;99.90;;;20.46;100.00;101338.25;4949393;28;20040;-74
2022/08/29 07:34:04;;;;;;;3.58;1.08;;;21.10;99.90;;;20.46;100.00;101336.44;4933522;28;20438;-75
2022/08/29 07:36:32;;;;;;;4.00;1.10;;;21.30;99.90;;;21.03;97.72;101342.63;4939404;28;20240;-75
2022/08/29 07:38:58;;;;;;;2.45;0.90;;;21.30;99.90;;;20.51;98.22;101344.09;4947365;28;20031;-74
2022/08/29 07:41:24;;;;;;;3.28;0.68;;;21.10;99.90;;;20.05;100.00;101334.31;4947462;28;20043;-75
2022/08/29 07:43:50;;;;;;;2.45;0.70;;;21.10;99.90;;;20.21;100.00;101337.50;4956166;28;20175;-74
2022/08/29 07:46:18;;;;;;;3.85;0.90;;;20.90;99.90;;;19.93;100.00;101343.25;4938610;28;21559;-74
2022/08/29 07:48:44;;;;;;;1.15;0.77;;;20.90;99.90;;;19.79;100.00;101349.66;4938350;28;20027;-74
2022/08/29 07:51:15;;;;;;;8.40;1.00;;;20.80;99.90;;;19.99;100.00;101354.34;4942004;28;20050;-75
2022/08/29 07:53:41;;;;;;;2.72;1.00;;;20.80;99.90;;;20.19;100.00;101354.63;4940685;28;20046;-74
2022/08/29 07:56:11;;;;;;;3.47;1.30;;;21.00;99.90;;;20.97;99.84;101359.22;4946307;28;20090;-74
2022/08/29 07:58:38;;;;;;;6.82;1.42;;;21.30;99.90;;;21.00;96.99;101358.94;4948322;28;20031;-75
2022/08/29 08:01:04;;;;;;;5.75;1.30;;;21.60;99.90;;;21.59;95.10;101364.91;4946735;28;20030;-74
2022/08/29 08:03:31;;;;;;;4.63;1.33;;;22.40;99.90;;;23.42;84.52;101360.66;4958601;28;20039;-75
2022/08/29 08:06:01;;;;;;;3.58;1.27;;;23.80;99.90;;;24.95;75.98;101372.31;4933285;28;20038;-75
2022/08/29 08:08:27;;;;;;;1.70;0.90;;;25.10;99.90;;;25.44;72.03;101363.94;4940040;28;20090;-74
2022/08/29 08:10:53;;;;;;;0.88;0.70;;;25.50;99.90;;;24.95;72.47;101377.69;4948025;28;20042;-75
2022/08/29 08:13:24;;;;;;;3.30;0.65;;;25.60;99.90;;;25.56;70.14;101378.06;4947917;28;20557;-76
2022/08/29 08:15:50;;;;;;;2.95;0.90;;;26.10;99.90;;;25.78;70.00;101384.81;4923823;28;20034;-75
2022/08/29 08:18:18;;;;;;;0.50;0.50;;;26.10;99.90;;;24.86;70.90;101385.81;4932553;28;20026;-76
2022/08/29 08:20:47;;;;;;;1.88;0.73;;;25.40;99.90;;;24.05;73.47;101392.53;4953101;28;20093;-75
2022/08/29 08:23:19;;;;;;;4.72;0.90;;;25.00;99.90;;;23.85;75.43;101398.94;4953431;28;20039;-75
2022/08/29 08:25:44;;;;;;;1.73;0.73;;;24.80;99.90;;;23.31;78.46;101404.63;4949686;28;20038;-76
2022/08/29 08:28:15;;;;;;;0.77;0.65;;;24.10;99.90;;;22.72;80.80;101398.19;4931578;28;20045;-76
2022/08/29 08:30:44;;;;;;;2.25;0.60;;;23.50;99.90;;;21.94;83.96;101401.31;4930993;28;20519;-75
2022/08/29 08:33:10;;;;;;;1.10;0.55;;;22.90;99.90;;;21.59;85.69;101411.31;4940351;28;20063;-76
2022/08/29 08:35:38;;;;;;;1.52;0.50;;;22.70;99.90;;;21.70;87.12;101413.94;4944828;28;20086;-76
2022/08/29 08:38:05;;;;;;;0.95;0.63;;;22.50;99.90;;;21.64;86.69;101413.59;4950949;28;20099;-76
2022/08/29 08:40:35;;;;;;;2.47;0.77;;;22.40;99.90;;;21.56;86.89;101414.25;4950600;28;20035;-76
2022/08/29 08:43:07;;;;;;;1.30;0.90;;;22.50;99.90;;;21.95;84.10;101425.31;4951514;28;20023;-76
2022/08/29 08:45:43;;;;;;;1.60;0.50;;;22.50;99.90;;;22.34;83.08;101406.03;4946548;28;20404;-76
2022/08/29 08:48:35;;;;;;;;;;;22.70;99.90;;;22.47;81.89;101412.88;4956548;28;20516;-76
2022/08/29 08:51:35;;;;;;;1.45;0.90;;;23.30;99.90;;;23.60;79.38;101419.09;4953029;28;19926;-77
2022/08/29 08:54:07;;;;;;;1.63;1.00;;;24.00;99.90;;;24.33;76.68;101431.16;4928563;28;20039;-76
2022/08/29 08:56:46;;;;;;;2.67;1.00;;;24.50;99.90;;;24.53;73.52;101420.38;4925512;28;20051;-77
2022/08/29 08:59:38;;;;;;;1.48;0.95;;;24.80;99.90;;;24.59;74.08;101427.88;4933487;28;20031;-77
2022/08/29 09:02:51;;;;;;;6.53;1.00;;;24.50;99.90;;;23.30;76.75;101427.13;4941653;28;20034;-76
2022/08/29 09:06:00;;;;;;;1.98;1.00;;;24.00;99.90;;;22.78;80.06;101429.00;4954028;28;20451;-76
2022/08/29 09:09:00;;;;;;;2.47;1.23;;;23.40;99.90;;;22.29;81.81;101426.03;4950697;28;20453;-76
2022/08/29 09:12:21;;;;;;;2.13;1.00;;;23.00;99.90;;;21.80;85.05;101434.66;4942136;28;20042;-76
2022/08/29 09:15:06;;;;;;;1.15;1.02;;;22.50;99.90;;;21.16;88.45;101435.34;4919455;28;20047;-76
2022/08/29 09:18:04;;;;;;;1.65;0.80;;;22.00;99.90;;;20.55;90.89;101427.66;4932880;28;20023;-76
2022/08/29 09:20:40;;;;;;;1.10;1.00;;;21.90;99.90;;;20.94;92.00;101437.06;4952251;28;20090;-76
2022/08/29 09:23:30;;;;;;;3.08;1.27;;;21.80;99.90;;;20.89;91.06;101433.91;4951350;28;20039;-76
2022/08/29 09:26:05;;;;;;;2.70;1.40;;;21.60;99.90;;;20.62;92.34;101436.91;4943579;28;20454;-76
2022/08/29 09:28:31;;;;;;;1.75;1.30;;;21.40;99.90;;;20.49;92.95;101434.31;4950859;28;20693;-76
2022/08/29 09:31:28;;;;;;;1.05;0.90;;;21.50;99.90;;;20.79;93.53;101432.94;4941559;28;20046;-77
2022/08/29 09:33:54;;;;;;;;;;;21.50;99.90;;;20.40;94.64;101435.03;4941369;28;20061;-76
2022/08/29 09:36:48;;;;;;;2.15;1.00;;;21.30;99.90;;;20.38;96.74;101436.97;4965715;28;20522;-76
2022/08/29 09:39:25;;;;;;;2.90;1.10;;;21.30;99.90;;;20.37;95.95;101429.94;4949209;28;20086;-76
2022/08/29 09:41:56;;;;;;;2.42;1.35;;;21.30;99.90;;;20.79;95.62;101438.28;4934646;28;20039;-76
2022/08/29 09:44:37;;;;;;;5.60;1.55;;;21.50;99.90;;;21.30;94.89;101449.34;4948816;28;20504;-76
2022/08/29 09:47:19;;;;;;;2.58;0.70;;;21.80;99.90;;;21.42;93.04;101444.84;4941268;28;20059;-76
2022/08/29 09:50:24;;;;;;;1.15;0.90;;;22.10;99.90;;;21.68;92.38;101447.22;4935164;28;20035;-77
2022/08/29 09:53:02;;;;;;;2.90;1.02;;;22.30;99.90;;;21.77;91.64;101449.16;4951810;28;20054;-76
2022/08/29 09:55:36;;;;;;;3.22;1.25;;;22.40;99.90;;;21.83;90.71;101447.78;4950971;28;20027;-76
2022/08/29 09:58:28;;;;;;;8.05;1.38;;;22.50;99.90;;;21.78;89.23;101455.38;4926578;28;20081;-76
2022/08/29 10:01:17;;;;;;;1.30;1.02;;;22.50;99.90;;;21.80;89.09;101459.63;4944504;28;20039;-76
2022/08/29 10:04:07;;;;;;;2.70;1.10;;;22.60;99.90;;;22.04;87.83;101455.88;4924166;28;20055;-76
2022/08/29 10:06:41;;;;;;;4.15;1.35;;;22.70;99.90;;;21.94;85.41;101457.63;4933789;28;20094;-75
2022/08/29 10:09:26;;;;;;;2.88;1.50;;;22.70;99.90;;;22.22;87.73;101451.66;4932303;28;20134;-76
2022/08/29 10:12:06;;;;;;;1.85;1.23;;;23.00;99.90;;;22.58;85.02;101457.56;4942722;28;20122;-77
2022/08/29 10:14:57;;;;;;;3.17;1.25;;;23.10;99.90;;;22.83;81.99;101476.91;4950714;28;20483;-76
2022/08/29 10:20:51;;;;;;;2.97;1.10;;;23.70;99.90;;;23.35;80.93;101483.13;4949984;28;20111;-76
2022/08/29 10:23:46;;;;;;;3.28;1.20;;;23.90;99.90;;;23.53;79.30;101478.78;4940927;28;20077;-76
2022/08/29 10:27:01;;;;;;;2.55;1.35;;;23.90;99.90;;;23.13;78.13;101479.66;4953790;28;20109;-77